sensor_id;sensor_type;location;lat;lon;timestamp;pressure;altitude;pressure_sealevel;temperature;humidity
62072;BME280;48031;48.542;13.232;2022-11-20T00:00:37;96778.22;;;6.82;nan
62072;BME280;48031;48.542;13.232;2022-11-20T00:04:39;96764.78;;;6.70;nan
62072;BME280;48031;48.542;13.232;2022-11-20T00:08:41;96761.97;;;6.93;nan
62072;BME280;48031;48.542;13.232;2022-11-20T00:12:43;96767.63;;;6.63;nan
62072;BME280;48031;48.542;13.232;2022-11-20T00:16:45;96760.59;;;7.07;nan
62072;BME280;48031;48.542;13.232;2022-11-20T00:20:47;96755.75;;;6.93;nan
62072;BME280;48031;48.542;13.232;2022-11-20T00:24:48;96767.59;;;7.25;nan
62072;BME280;48031;48.542;13.232;2022-11-20T00:28:52;96758.69;;;7.25;nan
62072;BME280;48031;48.542;13.232;2022-11-20T00:32:56;96755.19;;;7.07;nan
62072;BME280;48031;48.542;13.232;2022-11-20T00:36:58;96763.75;;;7.21;nan
62072;BME280;48031;48.542;13.232;2022-11-20T00:41:03;96760.41;;;7.14;nan
62072;BME280;48031;48.542;13.232;2022-11-20T00:45:06;96759.25;;;7.10;nan
62072;BME280;48031;48.542;13.232;2022-11-20T00:49:08;96765.47;;;6.94;nan
62072;BME280;48031;48.542;13.232;2022-11-20T00:53:10;96766.63;;;6.98;nan
62072;BME280;48031;48.542;13.232;2022-11-20T00:57:11;96771.53;;;7.01;nan
62072;BME280;48031;48.542;13.232;2022-11-20T01:01:14;96760.59;;;7.07;nan
62072;BME280;48031;48.542;13.232;2022-11-20T01:05:17;96765.47;;;7.27;nan
62072;BME280;48031;48.542;13.232;2022-11-20T01:09:18;96775.78;;;7.14;nan
62072;BME280;48031;48.542;13.232;2022-11-20T01:13:21;96774.56;;;7.04;nan
62072;BME280;48031;48.542;13.232;2022-11-20T01:17:41;96766.63;;;6.98;nan
62072;BME280;48031;48.542;13.232;2022-11-20T01:21:44;96775.59;;;6.87;nan
62072;BME280;48031;48.542;13.232;2022-11-20T01:25:46;96772.69;;;7.05;nan
62072;BME280;48031;48.542;13.232;2022-11-20T01:29:48;96782.81;;;7.31;nan
62072;BME280;48031;48.542;13.232;2022-11-20T01:33:52;96782.63;;;7.38;nan
62072;BME280;48031;48.542;13.232;2022-11-20T01:37:54;96773.66;;;6.82;nan
62072;BME280;48031;48.542;13.232;2022-11-20T01:41:56;96772.84;;;7.70;nan
62072;BME280;48031;48.542;13.232;2022-11-20T01:46:18;96781.84;;;7.21;nan
62072;BME280;48031;48.542;13.232;2022-11-20T01:50:24;96777.56;;;7.41;nan
62072;BME280;48031;48.542;13.232;2022-11-20T01:54:36;96774.78;;;7.20;nan
62072;BME280;48031;48.542;13.232;2022-11-20T01:58:45;96779.63;;;7.34;nan
62072;BME280;48031;48.542;13.232;2022-11-20T02:02:57;96777.41;;;7.31;nan
62072;BME280;48031;48.542;13.232;2022-11-20T02:07:01;96785.34;;;7.21;nan
62072;BME280;48031;48.542;13.232;2022-11-20T02:11:04;96792.38;;;7.22;nan
62072;BME280;48031;48.542;13.232;2022-11-20T02:15:06;96790.50;;;7.06;nan
62072;BME280;48031;48.542;13.232;2022-11-20T02:19:16;96790.91;;;7.31;nan
62072;BME280;48031;48.542;13.232;2022-11-20T02:28:02;96789.03;;;6.98;nan
62072;BME280;48031;48.542;13.232;2022-11-20T02:32:05;96789.09;;;7.03;nan
62072;BME280;48031;48.542;13.232;2022-11-20T02:36:08;96803.78;;;7.24;nan
62072;BME280;48031;48.542;13.232;2022-11-20T02:40:13;96802.94;;;6.90;nan
62072;BME280;48031;48.542;13.232;2022-11-20T02:44:15;96797.13;;;7.15;nan
62072;BME280;48031;48.542;13.232;2022-11-20T02:48:17;96795.81;;;7.18;nan
62072;BME280;48031;48.542;13.232;2022-11-20T02:52:18;96793.72;;;6.75;nan
62072;BME280;48031;48.542;13.232;2022-11-20T02:56:20;96781.44;;;7.29;nan
62072;BME280;48031;48.542;13.232;2022-11-20T03:00:22;96786.75;;;7.07;nan
62072;BME280;48031;48.542;13.232;2022-11-20T03:04:23;96779.84;;;6.83;nan
62072;BME280;48031;48.542;13.232;2022-11-20T03:08:25;96778.97;;;6.94;nan
62072;BME280;48031;48.542;13.232;2022-11-20T03:12:27;96778.72;;;6.79;nan
62072;BME280;48031;48.542;13.232;2022-11-20T03:16:31;96789.34;;;6.85;nan
62072;BME280;48031;48.542;13.232;2022-11-20T03:20:33;96774.47;;;6.99;nan
62072;BME280;48031;48.542;13.232;2022-11-20T03:24:35;96781.16;;;6.97;nan
62072;BME280;48031;48.542;13.232;2022-11-20T03:28:37;96779.59;;;6.39;nan
62072;BME280;48031;48.542;13.232;2022-11-20T03:32:39;96788.00;;;6.14;nan
62072;BME280;48031;48.542;13.232;2022-11-20T03:36:42;96789.63;;;6.27;nan
62072;BME280;48031;48.542;13.232;2022-11-20T03:40:43;96785.19;;;6.21;nan
62072;BME280;48031;48.542;13.232;2022-11-20T03:44:45;96797.00;;;6.20;nan
62072;BME280;48031;48.542;13.232;2022-11-20T03:48:47;96799.81;;;6.25;nan
62072;BME280;48031;48.542;13.232;2022-11-20T03:52:52;96795.28;;;6.42;nan
62072;BME280;48031;48.542;13.232;2022-11-20T03:56:54;96804.88;;;6.50;nan
62072;BME280;48031;48.542;13.232;2022-11-20T04:00:56;96803.72;;;6.17;nan
62072;BME280;48031;48.542;13.232;2022-11-20T04:04:57;96795.97;;;6.49;nan
62072;BME280;48031;48.542;13.232;2022-11-20T04:08:59;96802.31;;;6.43;nan
62072;BME280;48031;48.542;13.232;2022-11-20T04:13:01;96787.19;;;6.71;nan
62072;BME280;48031;48.542;13.232;2022-11-20T04:17:03;96793.25;;;6.78;nan
62072;BME280;48031;48.542;13.232;2022-11-20T04:21:06;96793.72;;;6.75;nan
62072;BME280;48031;48.542;13.232;2022-11-20T04:25:08;96793.56;;;6.81;nan
62072;BME280;48031;48.542;13.232;2022-11-20T04:29:11;96788.78;;;6.55;nan
62072;BME280;48031;48.542;13.232;2022-11-20T04:33:13;96787.09;;;6.65;nan
62072;BME280;48031;48.542;13.232;2022-11-20T04:37:14;96780.38;;;6.51;nan
62072;BME280;48031;48.542;13.232;2022-11-20T04:41:18;96785.00;;;6.67;nan
62072;BME280;48031;48.542;13.232;2022-11-20T04:45:22;96786.88;;;6.67;nan
62072;BME280;48031;48.542;13.232;2022-11-20T04:49:24;96785.88;;;6.56;nan
62072;BME280;48031;48.542;13.232;2022-11-20T04:53:26;96788.72;;;6.50;nan
62072;BME280;48031;48.542;13.232;2022-11-20T04:57:28;96791.63;;;6.77;nan
62072;BME280;48031;48.542;13.232;2022-11-20T05:01:30;96788.75;;;6.66;nan
62072;BME280;48031;48.542;13.232;2022-11-20T05:05:34;96776.94;;;7.01;nan
62072;BME280;48031;48.542;13.232;2022-11-20T05:09:35;96774.97;;;6.80;nan
62072;BME280;48031;48.542;13.232;2022-11-20T05:13:38;96774.13;;;6.62;nan
62072;BME280;48031;48.542;13.232;2022-11-20T05:17:40;96776.91;;;6.67;nan
62072;BME280;48031;48.542;13.232;2022-11-20T05:21:41;96779.84;;;6.83;nan
62072;BME280;48031;48.542;13.232;2022-11-20T05:25:43;96789.16;;;6.92;nan
62072;BME280;48031;48.542;13.232;2022-11-20T05:29:45;96788.66;;;6.61;nan
62072;BME280;48031;48.542;13.232;2022-11-20T05:33:47;96791.16;;;6.51;nan
62072;BME280;48031;48.542;13.232;2022-11-20T05:37:48;96785.16;;;6.78;nan
62072;BME280;48031;48.542;13.232;2022-11-20T05:41:50;96788.25;;;6.69;nan
62072;BME280;48031;48.542;13.232;2022-11-20T05:46:14;96787.78;;;6.89;nan
62072;BME280;48031;48.542;13.232;2022-11-20T05:50:16;96783.25;;;6.61;nan
62072;BME280;48031;48.542;13.232;2022-11-20T05:54:17;96787.88;;;6.78;nan
62072;BME280;48031;48.542;13.232;2022-11-20T05:58:19;96790.56;;;6.78;nan
62072;BME280;48031;48.542;13.232;2022-11-20T06:02:21;96794.00;;;6.73;nan
62072;BME280;48031;48.542;13.232;2022-11-20T06:06:23;96801.66;;;6.81;nan
62072;BME280;48031;48.542;13.232;2022-11-20T06:10:24;96807.47;;;6.73;nan
62072;BME280;48031;48.542;13.232;2022-11-20T06:14:26;96801.53;;;6.88;nan
62072;BME280;48031;48.542;13.232;2022-11-20T06:18:28;96805.41;;;6.80;nan
62072;BME280;48031;48.542;13.232;2022-11-20T06:22:31;96817.84;;;6.81;nan
62072;BME280;48031;48.542;13.232;2022-11-20T06:26:33;96800.13;;;6.68;nan
62072;BME280;48031;48.542;13.232;2022-11-20T06:30:35;96820.50;;;6.64;nan
62072;BME280;48031;48.542;13.232;2022-11-20T06:34:37;96823.22;;;6.64;nan
62072;BME280;48031;48.542;13.232;2022-11-20T06:38:39;96824.75;;;6.60;nan
62072;BME280;48031;48.542;13.232;2022-11-20T06:42:41;96833.44;;;6.62;nan
62072;BME280;48031;48.542;13.232;2022-11-20T06:46:42;96827.53;;;6.65;nan
62072;BME280;48031;48.542;13.232;2022-11-20T06:50:44;96837.50;;;6.93;nan
62072;BME280;48031;48.542;13.232;2022-11-20T06:54:46;96837.09;;;6.85;nan
62072;BME280;48031;48.542;13.232;2022-11-20T06:58:47;96831.75;;;6.73;nan
62072;BME280;48031;48.542;13.232;2022-11-20T07:02:49;96845.44;;;7.00;nan
62072;BME280;48031;48.542;13.232;2022-11-20T07:06:51;96844.91;;;6.86;nan
62072;BME280;48031;48.542;13.232;2022-11-20T07:10:57;96830.56;;;7.14;nan
62072;BME280;48031;48.542;13.232;2022-11-20T07:14:59;96841.41;;;7.02;nan
62072;BME280;48031;48.542;13.232;2022-11-20T07:19:01;96840.75;;;6.79;nan
62072;BME280;48031;48.542;13.232;2022-11-20T07:23:03;96842.81;;;6.88;nan
62072;BME280;48031;48.542;13.232;2022-11-20T07:27:04;96853.13;;;7.08;nan
62072;BME280;48031;48.542;13.232;2022-11-20T07:31:06;96852.75;;;7.16;nan
62072;BME280;48031;48.542;13.232;2022-11-20T07:35:08;96846.34;;;7.05;nan
62072;BME280;48031;48.542;13.232;2022-11-20T07:39:10;96854.56;;;6.82;nan
62072;BME280;48031;48.542;13.232;2022-11-20T07:43:12;96850.66;;;6.90;nan
62072;BME280;48031;48.542;13.232;2022-11-20T07:47:16;96841.88;;;6.83;nan
62072;BME280;48031;48.542;13.232;2022-11-20T07:51:18;96836.31;;;6.73;nan
62072;BME280;48031;48.542;13.232;2022-11-20T07:55:22;96838.88;;;6.51;nan
62072;BME280;48031;48.542;13.232;2022-11-20T07:59:24;96846.13;;;6.50;nan
62072;BME280;48031;48.542;13.232;2022-11-20T08:03:28;96848.53;;;6.63;nan
62072;BME280;48031;48.542;13.232;2022-11-20T08:07:29;96844.00;;;6.52;nan
62072;BME280;48031;48.542;13.232;2022-11-20T08:11:36;96833.25;;;6.69;nan
62072;BME280;48031;48.542;13.232;2022-11-20T08:15:56;96844.41;;;6.73;nan
62072;BME280;48031;48.542;13.232;2022-11-20T08:19:58;96845.91;;;6.97;nan
62072;BME280;48031;48.542;13.232;2022-11-20T08:23:59;96846.47;;;6.82;nan
62072;BME280;48031;48.542;13.232;2022-11-20T08:28:04;96846.28;;;7.17;nan
62072;BME280;48031;48.542;13.232;2022-11-20T08:32:20;96852.19;;;6.86;nan
62072;BME280;48031;48.542;13.232;2022-11-20T08:36:23;96848.31;;;7.27;nan
62072;BME280;48031;48.542;13.232;2022-11-20T08:40:25;96840.53;;;7.30;nan
62072;BME280;48031;48.542;13.232;2022-11-20T08:44:26;96841.22;;;7.37;nan
62072;BME280;48031;48.542;13.232;2022-11-20T08:48:28;96856.03;;;7.51;nan
62072;BME280;48031;48.542;13.232;2022-11-20T08:52:30;96837.94;;;7.69;nan
62072;BME280;48031;48.542;13.232;2022-11-20T08:56:35;96835.19;;;8.02;nan
62072;BME280;48031;48.542;13.232;2022-11-20T09:00:36;96834.59;;;8.00;nan
62072;BME280;48031;48.542;13.232;2022-11-20T09:04:38;96835.72;;;8.04;nan
62072;BME280;48031;48.542;13.232;2022-11-20T09:08:40;96832.88;;;8.32;nan
62072;BME280;48031;48.542;13.232;2022-11-20T09:12:42;96833.63;;;8.50;nan
62072;BME280;48031;48.542;13.232;2022-11-20T09:16:45;96826.94;;;8.79;nan
62072;BME280;48031;48.542;13.232;2022-11-20T09:20:47;96833.69;;;8.55;nan
62072;BME280;48031;48.542;13.232;2022-11-20T09:24:50;96829.94;;;8.34;nan
62072;BME280;48031;48.542;13.232;2022-11-20T09:28:52;96844.59;;;8.00;nan
62072;BME280;48031;48.542;13.232;2022-11-20T09:32:58;96831.91;;;8.22;nan
62072;BME280;48031;48.542;13.232;2022-11-20T09:37:01;96822.31;;;8.31;nan
62072;BME280;48031;48.542;13.232;2022-11-20T09:54:35;96824.41;;;8.46;nan
62072;BME280;48031;48.542;13.232;2022-11-20T09:58:42;96833.63;;;8.50;nan
62072;BME280;48031;48.542;13.232;2022-11-20T10:07:11;96825.00;;;8.31;nan
62072;BME280;48031;48.542;13.232;2022-11-20T10:25:10;96801.06;;;8.40;nan
62072;BME280;48031;48.542;13.232;2022-11-20T10:29:01;96801.31;;;8.38;nan
62072;BME280;48031;48.542;13.232;2022-11-20T10:33:23;96799.22;;;8.23;nan
62072;BME280;48031;48.542;13.232;2022-11-20T10:37:37;96797.75;;;8.32;nan
62072;BME280;48031;48.542;13.232;2022-11-20T10:41:44;96804.63;;;8.02;nan
62072;BME280;48031;48.542;13.232;2022-11-20T10:50:03;96786.22;;;8.42;nan
62072;BME280;48031;48.542;13.232;2022-11-20T10:54:22;96790.00;;;8.41;nan
62072;BME280;48031;48.542;13.232;2022-11-20T10:58:40;96786.25;;;8.47;nan
62072;BME280;48031;48.542;13.232;2022-11-20T11:02:50;96778.97;;;8.48;nan
62072;BME280;48031;48.542;13.232;2022-11-20T11:06:56;96767.09;;;8.49;nan
62072;BME280;48031;48.542;13.232;2022-11-20T11:11:18;96774.81;;;8.62;nan
62072;BME280;48031;48.542;13.232;2022-11-20T11:15:28;96772.34;;;8.87;nan
62072;BME280;48031;48.542;13.232;2022-11-20T11:19:30;96784.91;;;8.45;nan
62072;BME280;48031;48.542;13.232;2022-11-20T11:23:42;96775.25;;;8.81;nan
62072;BME280;48031;48.542;13.232;2022-11-20T11:27:48;96779.06;;;8.80;nan
62072;BME280;48031;48.542;13.232;2022-11-20T11:31:50;96772.16;;;8.67;nan
62072;BME280;48031;48.542;13.232;2022-11-20T11:35:52;96763.84;;;8.73;nan
62072;BME280;48031;48.542;13.232;2022-11-20T11:39:54;96756.69;;;8.62;nan
62072;BME280;48031;48.542;13.232;2022-11-20T11:44:32;96754.34;;;9.03;nan
62072;BME280;48031;48.542;13.232;2022-11-20T11:48:57;96757.69;;;9.15;nan
62072;BME280;48031;48.542;13.232;2022-11-20T11:53:16;96739.78;;;9.09;nan
62072;BME280;48031;48.542;13.232;2022-11-20T12:01:45;96751.25;;;8.89;nan
62072;BME280;48031;48.542;13.232;2022-11-20T12:05:57;96753.22;;;8.99;nan
62072;BME280;48031;48.542;13.232;2022-11-20T12:10:00;96766.16;;;8.92;nan
62072;BME280;48031;48.542;13.232;2022-11-20T12:14:08;96743.88;;;9.11;nan
62072;BME280;48031;48.542;13.232;2022-11-20T12:18:17;96736.75;;;9.37;nan
62072;BME280;48031;48.542;13.232;2022-11-20T12:22:51;96736.47;;;9.34;nan
62072;BME280;48031;48.542;13.232;2022-11-20T12:31:49;96734.69;;;9.12;nan
62072;BME280;48031;48.542;13.232;2022-11-20T12:36:00;96736.88;;;9.21;nan
62072;BME280;48031;48.542;13.232;2022-11-20T12:45:01;96722.81;;;9.60;nan
62072;BME280;48031;48.542;13.232;2022-11-20T12:57:46;96720.81;;;9.41;nan
62072;BME280;48031;48.542;13.232;2022-11-20T13:01:55;96718.56;;;9.33;nan
62072;BME280;48031;48.542;13.232;2022-11-20T13:06:15;96705.56;;;9.82;nan
62072;BME280;48031;48.542;13.232;2022-11-20T13:18:46;96690.94;;;8.94;nan
62072;BME280;48031;48.542;13.232;2022-11-20T13:22:53;96697.41;;;9.25;nan
62072;BME280;48031;48.542;13.232;2022-11-20T13:31:04;96695.22;;;8.85;nan
62072;BME280;48031;48.542;13.232;2022-11-20T13:35:08;96700.63;;;9.22;nan
62072;BME280;48031;48.542;13.232;2022-11-20T13:39:10;96691.72;;;8.89;nan
62072;BME280;48031;48.542;13.232;2022-11-20T13:47:28;61634.44;;;-142.07;100.00
62072;BME280;48031;48.542;13.232;2022-11-20T13:51:40;61634.44;;;-142.07;100.00
62072;BME280;48031;48.542;13.232;2022-11-20T13:55:54;61634.44;;;-142.07;100.00
62072;BME280;48031;48.542;13.232;2022-11-20T14:00:16;61634.44;;;-142.07;100.00
62072;BME280;48031;48.542;13.232;2022-11-20T14:04:27;61634.44;;;-142.07;100.00
62072;BME280;48031;48.542;13.232;2022-11-20T14:08:40;61634.44;;;-142.07;100.00
62072;BME280;48031;48.542;13.232;2022-11-20T14:12:44;61634.44;;;-142.07;100.00
62072;BME280;48031;48.542;13.232;2022-11-20T14:16:47;61634.44;;;-142.07;100.00
62072;BME280;48031;48.542;13.232;2022-11-20T14:20:48;61634.44;;;-142.07;100.00
62072;BME280;48031;48.542;13.232;2022-11-20T14:29:15;61634.44;;;-142.07;100.00
62072;BME280;48031;48.542;13.232;2022-11-20T14:33:18;61634.44;;;-142.07;100.00
62072;BME280;48031;48.542;13.232;2022-11-20T14:37:24;61634.44;;;-142.07;100.00
62072;BME280;48031;48.542;13.232;2022-11-20T14:41:28;61634.44;;;-142.07;100.00
62072;BME280;48031;48.542;13.232;2022-11-20T14:45:32;61634.44;;;-142.07;100.00
62072;BME280;48031;48.542;13.232;2022-11-20T14:49:35;61634.44;;;-142.07;100.00
62072;BME280;48031;48.542;13.232;2022-11-20T14:53:37;61634.44;;;-142.07;100.00
62072;BME280;48031;48.542;13.232;2022-11-20T14:57:39;61634.44;;;-142.07;100.00
62072;BME280;48031;48.542;13.232;2022-11-20T15:01:57;61634.44;;;-142.07;100.00
62072;BME280;48031;48.542;13.232;2022-11-20T15:06:00;61634.44;;;-142.07;100.00
62072;BME280;48031;48.542;13.232;2022-11-20T15:10:05;61634.44;;;-142.07;100.00
62072;BME280;48031;48.542;13.232;2022-11-20T15:14:09;61634.44;;;-142.07;100.00
62072;BME280;48031;48.542;13.232;2022-11-20T15:18:12;61634.44;;;-142.07;100.00
62072;BME280;48031;48.542;13.232;2022-11-20T15:22:14;61634.44;;;-142.07;100.00
62072;BME280;48031;48.542;13.232;2022-11-20T15:26:23;96702.59;;;22.21;nan
62072;BME280;48031;48.542;13.232;2022-11-20T15:30:26;96720.19;;;13.85;nan
62072;BME280;48031;48.542;13.232;2022-11-20T15:34:27;96713.97;;;12.38;nan
62072;BME280;48031;48.542;13.232;2022-11-20T15:38:29;96711.78;;;11.81;nan
62072;BME280;48031;48.542;13.232;2022-11-20T15:42:31;96714.75;;;11.85;nan
62072;BME280;48031;48.542;13.232;2022-11-20T15:46:37;96705.72;;;11.94;nan
62072;BME280;48031;48.542;13.232;2022-11-20T15:54:52;96710.50;;;10.98;nan
62072;BME280;48031;48.542;13.232;2022-11-20T15:58:54;96706.69;;;10.94;nan
62072;BME280;48031;48.542;13.232;2022-11-20T16:02:55;96713.75;;;10.95;nan
62072;BME280;48031;48.542;13.232;2022-11-20T16:06:57;96714.56;;;11.00;nan
62072;BME280;48031;48.542;13.232;2022-11-20T16:10:59;96700.13;;;10.59;nan
62072;BME280;48031;48.542;13.232;2022-11-20T16:15:01;96706.94;;;10.77;nan
62072;BME280;48031;48.542;13.232;2022-11-20T16:19:21;96713.75;;;11.25;nan
62072;BME280;48031;48.542;13.232;2022-11-20T16:23:23;96709.13;;;11.41;nan
62072;BME280;48031;48.542;13.232;2022-11-20T16:27:25;96697.94;;;11.52;nan
62072;BME280;48031;48.542;13.232;2022-11-20T16:31:26;96691.75;;;11.11;nan
62072;BME280;48031;48.542;13.232;2022-11-20T16:35:30;96689.28;;;11.40;nan
62072;BME280;48031;48.542;13.232;2022-11-20T16:39:32;96685.19;;;11.53;nan
62072;BME280;48031;48.542;13.232;2022-11-20T16:43:33;96699.06;;;11.41;nan
62072;BME280;48031;48.542;13.232;2022-11-20T16:47:35;96694.41;;;11.52;nan
62072;BME280;48031;48.542;13.232;2022-11-20T16:51:37;96700.97;;;11.10;nan
62072;BME280;48031;48.542;13.232;2022-11-20T16:55:39;96703.13;;;11.39;nan
62072;BME280;48031;48.542;13.232;2022-11-20T16:59:40;96697.47;;;11.20;nan
62072;BME280;48031;48.542;13.232;2022-11-20T17:03:43;96691.13;;;11.75;nan
62072;BME280;48031;48.542;13.232;2022-11-20T17:07:46;96693.06;;;11.39;nan
62072;BME280;48031;48.542;13.232;2022-11-20T17:11:48;96692.81;;;11.41;nan
62072;BME280;48031;48.542;13.232;2022-11-20T17:15:50;96695.56;;;10.70;nan
62072;BME280;48031;48.542;13.232;2022-11-20T17:19:52;96693.13;;;10.78;nan
62072;BME280;48031;48.542;13.232;2022-11-20T17:23:54;96688.75;;;10.88;nan
62072;BME280;48031;48.542;13.232;2022-11-20T17:27:55;96686.59;;;10.95;nan
62072;BME280;48031;48.542;13.232;2022-11-20T17:31:57;96684.97;;;10.63;nan
62072;BME280;48031;48.542;13.232;2022-11-20T17:35:59;96692.84;;;10.85;nan
62072;BME280;48031;48.542;13.232;2022-11-20T17:40:00;96684.13;;;10.48;nan
62072;BME280;48031;48.542;13.232;2022-11-20T17:44:02;96695.81;;;10.63;nan
62072;BME280;48031;48.542;13.232;2022-11-20T17:48:04;96692.41;;;10.16;nan
62072;BME280;48031;48.542;13.232;2022-11-20T17:52:06;96689.91;;;9.99;nan
62072;BME280;48031;48.542;13.232;2022-11-20T17:56:08;96694.69;;;10.44;nan
62072;BME280;48031;48.542;13.232;2022-11-20T18:00:28;96684.34;;;10.31;nan
62072;BME280;48031;48.542;13.232;2022-11-20T18:04:32;96693.19;;;10.01;nan
62072;BME280;48031;48.542;13.232;2022-11-20T18:08:33;96689.09;;;9.93;nan
62072;BME280;48031;48.542;13.232;2022-11-20T18:12:35;96702.31;;;9.75;nan
62072;BME280;48031;48.542;13.232;2022-11-20T18:16:40;96687.31;;;10.19;nan
62072;BME280;48031;48.542;13.232;2022-11-20T18:20:45;96690.31;;;9.66;nan
62072;BME280;48031;48.542;13.232;2022-11-20T18:24:46;96677.75;;;10.07;nan
62072;BME280;48031;48.542;13.232;2022-11-20T18:28:48;96687.56;;;9.55;nan
62072;BME280;48031;48.542;13.232;2022-11-20T18:32:50;96688.22;;;9.31;nan
62072;BME280;48031;48.542;13.232;2022-11-20T18:36:52;96677.34;;;9.68;nan
62072;BME280;48031;48.542;13.232;2022-11-20T18:40:53;96673.81;;;9.67;nan
62072;BME280;48031;48.542;13.232;2022-11-20T18:44:55;96679.31;;;9.92;nan
62072;BME280;48031;48.542;13.232;2022-11-20T18:48:57;96676.25;;;9.69;nan
62072;BME280;48031;48.542;13.232;2022-11-20T18:52:58;96672.16;;;9.61;nan
62072;BME280;48031;48.542;13.232;2022-11-20T18:57:00;96670.84;;;9.69;nan
62072;BME280;48031;48.542;13.232;2022-11-20T19:01:06;96661.97;;;9.93;nan
62072;BME280;48031;48.542;13.232;2022-11-20T19:05:12;96673.75;;;9.52;nan
62072;BME280;48031;48.542;13.232;2022-11-20T19:09:14;96653.59;;;9.95;nan
62072;BME280;48031;48.542;13.232;2022-11-20T19:13:16;96656.53;;;9.88;nan
62072;BME280;48031;48.542;13.232;2022-11-20T19:17:18;96652.94;;;9.68;nan
62072;BME280;48031;48.542;13.232;2022-11-20T19:21:22;96655.00;;;10.13;nan
62072;BME280;48031;48.542;13.232;2022-11-20T19:25:24;96641.69;;;10.11;nan
62072;BME280;48031;48.542;13.232;2022-11-20T19:29:26;96636.38;;;10.67;nan
62072;BME280;48031;48.542;13.232;2022-11-20T19:33:29;96635.03;;;10.69;nan
62072;BME280;48031;48.542;13.232;2022-11-20T19:37:33;96629.34;;;10.81;nan
62072;BME280;48031;48.542;13.232;2022-11-20T19:41:37;96629.31;;;10.56;nan
62072;BME280;48031;48.542;13.232;2022-11-20T19:45:39;96626.56;;;10.25;nan
62072;BME280;48031;48.542;13.232;2022-11-20T19:49:41;96617.56;;;10.05;nan
62072;BME280;48031;48.542;13.232;2022-11-20T19:53:42;96624.72;;;10.46;nan
62072;BME280;48031;48.542;13.232;2022-11-20T19:57:44;96618.22;;;10.52;nan
62072;BME280;48031;48.542;13.232;2022-11-20T20:01:46;96614.13;;;10.39;nan
62072;BME280;48031;48.542;13.232;2022-11-20T20:05:48;96624.09;;;10.14;nan
62072;BME280;48031;48.542;13.232;2022-11-20T20:09:49;96620.69;;;9.66;nan
62072;BME280;48031;48.542;13.232;2022-11-20T20:13:51;96622.78;;;9.49;nan
62072;BME280;48031;48.542;13.232;2022-11-20T20:17:53;96624.97;;;9.52;nan
62072;BME280;48031;48.542;13.232;2022-11-20T20:21:55;96606.06;;;9.67;nan
62072;BME280;48031;48.542;13.232;2022-11-20T20:25:58;96611.25;;;9.79;nan
62072;BME280;48031;48.542;13.232;2022-11-20T20:30:00;96613.31;;;9.51;nan
62072;BME280;48031;48.542;13.232;2022-11-20T20:34:02;96609.50;;;9.47;nan
62072;BME280;48031;48.542;13.232;2022-11-20T20:38:05;96606.38;;;9.13;nan
62072;BME280;48031;48.542;13.232;2022-11-20T20:42:07;96606.50;;;9.44;nan
62072;BME280;48031;48.542;13.232;2022-11-20T20:46:09;96612.97;;;9.33;nan
62072;BME280;48031;48.542;13.232;2022-11-20T20:50:11;96603.19;;;9.32;nan
62072;BME280;48031;48.542;13.232;2022-11-20T20:54:13;96596.09;;;9.21;nan
62072;BME280;48031;48.542;13.232;2022-11-20T20:58:15;96599.13;;;8.82;nan
62072;BME280;48031;48.542;13.232;2022-11-20T21:02:18;96588.59;;;8.49;nan
62072;BME280;48031;48.542;13.232;2022-11-20T21:06:20;96583.19;;;8.86;nan
62072;BME280;48031;48.542;13.232;2022-11-20T21:10:22;96581.25;;;8.81;nan
62072;BME280;48031;48.542;13.232;2022-11-20T21:14:24;96583.19;;;8.49;nan
62072;BME280;48031;48.542;13.232;2022-11-20T21:18:27;96567.31;;;8.99;nan
62072;BME280;48031;48.542;13.232;2022-11-20T21:22:29;96569.59;;;9.23;nan
62072;BME280;48031;48.542;13.232;2022-11-20T21:26:36;96556.66;;;9.35;nan
62072;BME280;48031;48.542;13.232;2022-11-20T21:30:38;96562.75;;;9.77;nan
62072;BME280;48031;48.542;13.232;2022-11-20T21:34:40;96565.47;;;9.87;nan
62072;BME280;48031;48.542;13.232;2022-11-20T21:38:42;96564.34;;;9.68;nan
62072;BME280;48031;48.542;13.232;2022-11-20T21:42:44;96565.16;;;9.69;nan
62072;BME280;48031;48.542;13.232;2022-11-20T21:46:46;96557.56;;;9.71;nan
62072;BME280;48031;48.542;13.232;2022-11-20T21:50:47;96550.81;;;9.73;nan
62072;BME280;48031;48.542;13.232;2022-11-20T21:54:49;96545.03;;;9.49;nan
62072;BME280;48031;48.542;13.232;2022-11-20T21:58:52;96544.31;;;9.69;nan
62072;BME280;48031;48.542;13.232;2022-11-20T22:02:54;96549.50;;;9.86;nan
62072;BME280;48031;48.542;13.232;2022-11-20T22:06:55;96543.81;;;10.02;nan
62072;BME280;48031;48.542;13.232;2022-11-20T22:11:03;96531.91;;;10.64;nan
62072;BME280;48031;48.542;13.232;2022-11-20T22:15:05;96520.25;;;10.38;nan
62072;BME280;48031;48.542;13.232;2022-11-20T22:19:07;96520.81;;;10.30;nan
62072;BME280;48031;48.542;13.232;2022-11-20T22:23:09;96511.88;;;10.30;nan
62072;BME280;48031;48.542;13.232;2022-11-20T22:27:10;96523.78;;;10.34;nan
62072;BME280;48031;48.542;13.232;2022-11-20T22:31:12;96515.13;;;10.42;nan
62072;BME280;48031;48.542;13.232;2022-11-20T22:35:14;96520.53;;;10.42;nan
62072;BME280;48031;48.542;13.232;2022-11-20T22:39:15;96517.81;;;10.57;nan
62072;BME280;48031;48.542;13.232;2022-11-20T22:43:18;96525.34;;;10.86;nan
62072;BME280;48031;48.542;13.232;2022-11-20T22:47:19;96524.78;;;10.89;nan
62072;BME280;48031;48.542;13.232;2022-11-20T22:51:32;96524.78;;;10.89;nan
62072;BME280;48031;48.542;13.232;2022-11-20T22:55:34;96528.00;;;11.06;nan
62072;BME280;48031;48.542;13.232;2022-11-20T22:59:36;96523.16;;;10.93;nan
62072;BME280;48031;48.542;13.232;2022-11-20T23:03:39;96516.53;;;11.24;nan
62072;BME280;48031;48.542;13.232;2022-11-20T23:07:42;96533.00;;;10.68;nan
62072;BME280;48031;48.542;13.232;2022-11-20T23:11:44;96529.16;;;10.79;nan
62072;BME280;48031;48.542;13.232;2022-11-20T23:15:46;96535.34;;;11.70;nan
62072;BME280;48031;48.542;13.232;2022-11-20T23:19:48;96550.03;;;10.94;nan
62072;BME280;48031;48.542;13.232;2022-11-20T23:23:52;96552.09;;;11.33;nan